Terminal Aerodrome Forecast
Issued by NWS

Home | Current Version | Previous Version | Text Only | Print | Product List | Glossary On
Versions: 1 2 3 4 5 6 7 8 9 10 11 12 13
000
FTUS41 KPHI 032320
TAFMIV
TAF
KMIV 032320Z 0400/0424 00000KT P6SM FEW100
     FM041400 24007KT P6SM FEW060
     FM041700 22010G18KT P6SM FEW060
     FM042200 20008KT P6SM SKC=

USA.gov is the U.S. government's official web portal to all federal, state and local government web resources and services.